Aviation Digital Data Service (ADDS)

Output produced by METARs form (0243 UTC 24 July 2017)
found at http://www.aviationweather.gov/adds/metars/
 
TJBQ 232339Z 2400/2424 10010KT P6SM FEW022 SCT110 
     FM240600 12005KT P6SM FEW025 
     FM241400 08015G23KT P6SM SCT030 
     FM242300 09011KT P6SM FEW025 SCT070 AMD NOT SKED 2402/2411
       
TJMZ 232339Z 2400/2424 08005KT P6SM FEW030 
     FM241530 27010KT P6SM VCSH SCT030 
     FM242200 06006KT P6SM FEW030 AMD NOT SKED
       
TJPS 232339Z 2400/2424 05005KT P6SM FEW030 FEW060 
     FM241400 13012G20KT P6SM FEW030 
     FM242330 09007KT P6SM FEW030 AMD NOT SKED TIL 240300
       
TJSJ 232339Z 2400/2424 09009KT P6SM VCSH FEW025 SCT040 
     FM240300 10007KT P6SM FEW025 
     FM241400 07015G24KT P6SM FEW025 SCT035 
     FM242200 10006KT P6SM VCSH SCT030